Time;durP1;ratioP1;P1;durP2;ratioP2;P2;SDS_P1;SDS_P2;PMS_P1;PMS_P2;Temp;Humidity;BMP_temperature;BMP_pressure;BME280_temperature;BME280_humidity;BME280_pressure;Samples;Min_cycle;Max_cycle;Signal;HPM_P1;HPM_P2
2023/03/31 00:02:22;;;;;;;;;;;20.60;45.40;;;;;;5062416;28;19935;-62
2023/03/31 00:04:52;;;;;;;;;;;20.60;45.40;;;;;;5057157;28;19932;-62
2023/03/31 00:07:23;;;;;;;;;;;20.60;45.40;;;;;;5056283;28;19924;-63
2023/03/31 00:09:53;;;;;;;;;;;20.60;45.40;;;;;;5069946;28;19990;-62
2023/03/31 00:12:20;;;;;;;;;;;20.60;45.40;;;;;;5062918;28;19970;-62
2023/03/31 00:14:47;;;;;;;;;;;20.60;45.40;;;;;;5056693;28;20366;-62
2023/03/31 00:17:15;;;;;;;;;;;20.60;45.40;;;;;;5058542;28;19927;-62
2023/03/31 00:19:42;;;;;;;;;;;20.60;45.40;;;;;;5057015;28;19920;-61
2023/03/31 00:22:09;;;;;;;;;;;20.60;45.40;;;;;;5058801;28;19932;-62
2023/03/31 00:24:36;;;;;;;;;;;20.60;45.40;;;;;;5071841;28;20274;-62
2023/03/31 00:27:03;;;;;;;;;;;20.60;45.40;;;;;;5059548;28;19962;-62
2023/03/31 00:29:30;;;;;;;;;;;20.60;45.40;;;;;;5058401;28;19933;-62
2023/03/31 00:31:58;;;;;;;;;;;20.60;45.40;;;;;;5058397;28;19920;-62
2023/03/31 00:34:27;;;;;;;;;;;20.60;45.40;;;;;;5056869;28;19943;-63
2023/03/31 00:36:56;;;;;;;;;;;20.60;45.40;;;;;;5058644;28;19924;-62
2023/03/31 00:39:24;;;;;;;;;;;20.60;45.40;;;;;;5053518;28;20039;-62
2023/03/31 00:41:51;;;;;;;;;;;20.60;45.40;;;;;;5056644;28;19920;-62
2023/03/31 00:44:21;;;;;;;;;;;20.60;45.40;;;;;;5061470;28;19966;-62
2023/03/31 00:46:51;;;;;;;;;;;20.60;45.40;;;;;;5058407;28;20003;-63
2023/03/31 00:49:20;;;;;;;;;;;20.60;45.40;;;;;;5055385;28;19920;-62
2023/03/31 00:51:49;;;;;;;;;;;20.50;45.30;;;;;;5074219;28;19921;-62
2023/03/31 00:54:18;;;;;;;;;;;20.60;45.40;;;;;;5056257;28;19924;-62
2023/03/31 00:56:46;;;;;;;;;;;20.60;45.40;;;;;;5059918;28;20348;-62
2023/03/31 00:59:14;;;;;;;;;;;20.60;45.40;;;;;;5070816;28;19928;-62
2023/03/31 01:01:41;;;;;;;;;;;20.60;45.40;;;;;;5069613;28;20389;-62
2023/03/31 01:04:09;;;;;;;;;;;20.60;45.40;;;;;;5058650;28;19927;-62
2023/03/31 01:06:36;;;;;;;;;;;20.60;45.40;;;;;;5061219;28;19998;-62
2023/03/31 01:09:05;;;;;;;;;;;20.60;45.40;;;;;;5056283;28;19936;-62
2023/03/31 01:11:32;;;;;;;;;;;20.60;45.40;;;;;;5039424;28;19927;-63
2023/03/31 01:13:59;;;;;;;;;;;20.60;45.40;;;;;;5056303;28;19924;-62
2023/03/31 01:16:26;;;;;;;;;;;20.60;45.40;;;;;;5057441;28;19968;-61
2023/03/31 01:18:52;;;;;;;;;;;20.60;45.40;;;;;;5055129;28;19920;-62
2023/03/31 01:21:46;;;;;;;;;;;20.60;45.40;;;;;;5070653;28;19928;-62
2023/03/31 01:24:34;;;;;;;;;;;20.60;45.40;;;;;;5059948;28;19920;-62
2023/03/31 01:27:25;;;;;;;;;;;20.60;45.40;;;;;;5069668;28;19933;-62
2023/03/31 01:30:10;;;;;;;;;;;20.50;45.30;;;;;;5056285;28;20362;-62
2023/03/31 01:32:52;;;;;;;;;;;20.50;45.30;;;;;;5058551;28;19948;-62
2023/03/31 01:35:28;;;;;;;;;;;20.50;45.30;;;;;;5054827;28;19925;-62
2023/03/31 01:38:03;;;;;;;;;;;20.60;45.40;;;;;;5058668;28;19970;-62
2023/03/31 01:40:36;;;;;;;;;;;20.50;45.40;;;;;;5067773;28;19954;-62
2023/03/31 01:43:04;;;;;;;;;;;20.60;45.40;;;;;;5059246;28;19982;-62
2023/03/31 01:45:35;;;;;;;;;;;20.60;45.40;;;;;;5055243;28;20007;-63
2023/03/31 01:48:02;;;;;;;;;;;20.50;45.40;;;;;;5056269;28;19971;-63
2023/03/31 01:50:29;;;;;;;;;;;20.60;45.40;;;;;;5042770;28;19982;-62
2023/03/31 01:52:57;;;;;;;;;;;20.60;45.40;;;;;;5057876;28;19950;-62
2023/03/31 01:55:25;;;;;;;;;;;20.50;45.40;;;;;;5069363;28;19924;-62
2023/03/31 01:57:53;;;;;;;;;;;20.50;45.40;;;;;;5069534;28;19928;-62
2023/03/31 02:00:21;;;;;;;;;;;20.50;45.40;;;;;;5070120;28;19970;-62
2023/03/31 02:02:48;;;;;;;;;;;20.60;45.40;;;;;;5058888;28;19942;-61
2023/03/31 02:05:15;;;;;;;;;;;20.50;45.30;;;;;;5053128;28;20447;-62
2023/03/31 02:07:43;;;;;;;;;;;20.50;45.40;;;;;;5057666;28;20034;-62
2023/03/31 02:10:10;;;;;;;;;;;20.50;45.40;;;;;;5053536;28;20343;-62
2023/03/31 02:12:38;;;;;;;;;;;20.50;45.40;;;;;;5057945;28;19970;-62
2023/03/31 02:15:08;;;;;;;;;;;20.50;45.40;;;;;;5052461;28;19989;-62
2023/03/31 02:17:38;;;;;;;;;;;20.50;45.40;;;;;;5057490;28;19920;-62
2023/03/31 02:20:06;;;;;;;;;;;20.60;45.40;;;;;;5056460;28;19920;-62
2023/03/31 02:22:34;;;;;;;;;;;20.50;45.40;;;;;;5074772;28;20015;-62
2023/03/31 02:25:02;;;;;;;;;;;20.50;45.40;;;;;;5054200;28;19975;-62
2023/03/31 02:27:30;;;;;;;;;;;20.50;45.40;;;;;;5057005;28;19921;-62
2023/03/31 02:29:57;;;;;;;;;;;20.50;45.40;;;;;;5058491;28;19943;-62
2023/03/31 02:32:26;;;;;;;;;;;20.50;45.40;;;;;;5060227;28;19967;-62
2023/03/31 02:34:53;;;;;;;;;;;20.50;45.40;;;;;;5054380;28;20266;-62
2023/03/31 02:37:20;;;;;;;;;;;20.50;45.40;;;;;;5055114;28;20006;-63
2023/03/31 02:39:48;;;;;;;;;;;20.50;45.40;;;;;;5054771;28;19921;-62
2023/03/31 02:42:14;;;;;;;;;;;20.50;45.40;;;;;;5069209;28;19924;-62
2023/03/31 02:44:41;;;;;;;;;;;20.50;45.40;;;;;;5053634;28;20003;-62
2023/03/31 02:47:08;;;;;;;;;;;20.50;45.40;;;;;;5051851;28;20001;-62
2023/03/31 02:49:37;;;;;;;;;;;20.50;45.40;;;;;;5068705;28;19974;-62
2023/03/31 02:52:22;;;;;;;;;;;20.60;45.40;;;;;;5055400;28;19947;-62
2023/03/31 02:55:10;;;;;;;;;;;20.50;45.40;;;;;;5056390;28;20367;-62
2023/03/31 02:57:40;;;;;;;;;;;20.60;45.40;;;;;;5053461;28;19925;-62
2023/03/31 03:00:08;;;;;;;;;;;20.50;45.40;;;;;;5068463;28;19921;-62
2023/03/31 03:02:37;;;;;;;;;;;20.50;45.40;;;;;;5053417;28;19924;-62
2023/03/31 03:05:18;;;;;;;;;;;20.50;45.40;;;;;;5054344;28;19920;-62
2023/03/31 03:07:46;;;;;;;;;;;20.50;45.40;;;;;;5055279;28;19927;-62
2023/03/31 03:10:15;;;;;;;;;;;20.50;45.40;;;;;;5053845;28;19927;-62
2023/03/31 03:12:43;;;;;;;;;;;20.50;45.40;;;;;;5055683;28;19920;-63
2023/03/31 03:15:10;;;;;;;;;;;20.50;45.40;;;;;;5050925;28;19920;-62
2023/03/31 03:17:37;;;;;;;;;;;20.50;45.40;;;;;;5067566;28;19925;-61
2023/03/31 03:20:06;;;;;;;;;;;20.50;45.40;;;;;;5052055;28;19932;-62
2023/03/31 03:22:35;;;;;;;;;;;20.50;45.40;;;;;;5054599;28;19963;-61
2023/03/31 03:25:01;;;;;;;;;;;20.60;45.40;;;;;;5060532;28;19921;-62
2023/03/31 03:27:28;;;;;;;;;;;20.50;45.40;;;;;;5060085;28;19920;-62
2023/03/31 03:29:56;;;;;;;;;;;20.50;45.40;;;;;;5057067;28;19952;-62
2023/03/31 03:32:22;;;;;;;;;;;20.50;45.40;;;;;;5072361;28;19970;-62
2023/03/31 03:34:49;;;;;;;;;;;20.50;45.40;;;;;;5058035;28;19991;-61
2023/03/31 03:37:16;;;;;;;;;;;20.50;45.40;;;;;;5072781;28;19921;-62
2023/03/31 03:39:44;;;;;;;;;;;20.50;45.40;;;;;;5058047;28;20381;-62
2023/03/31 03:42:11;;;;;;;;;;;20.50;45.40;;;;;;5071148;28;20290;-62
2023/03/31 03:44:37;;;;;;;;;;;20.50;45.40;;;;;;5070990;28;19982;-61
2023/03/31 03:47:04;;;;;;;;;;;20.50;45.40;;;;;;5059232;28;19928;-63
2023/03/31 03:49:31;;;;;;;;;;;20.50;45.40;;;;;;5056327;28;19931;-62
2023/03/31 03:51:58;;;;;;;;;;;20.50;45.30;;;;;;5058533;28;19920;-63
2023/03/31 03:54:25;;;;;;;;;;;20.50;45.40;;;;;;5055891;28;19925;-62
2023/03/31 03:56:53;;;;;;;;;;;20.50;45.30;;;;;;5054849;28;19921;-62
2023/03/31 03:59:20;;;;;;;;;;;20.50;45.40;;;;;;5057516;28;19963;-62
2023/03/31 04:01:46;;;;;;;;;;;20.50;45.40;;;;;;5071209;28;19932;-61
2023/03/31 04:04:13;;;;;;;;;;;20.50;45.40;;;;;;5057233;28;19928;-63
2023/03/31 04:06:40;;;;;;;;;;;20.50;45.40;;;;;;5057920;28;19920;-62
2023/03/31 04:09:07;;;;;;;;;;;20.50;45.40;;;;;;5060212;28;19932;-62
2023/03/31 04:11:33;;;;;;;;;;;20.50;45.40;;;;;;5053321;28;19966;-62
2023/03/31 04:14:02;;;;;;;;;;;20.50;45.90;;;;;;5055657;28;20438;-61
2023/03/31 04:16:29;;;;;;;;;;;20.50;45.40;;;;;;5057981;28;19963;-61
2023/03/31 04:18:58;;;;;;;;;;;20.50;45.40;;;;;;5071309;28;20007;-62
2023/03/31 04:21:25;;;;;;;;;;;20.50;45.40;;;;;;5071544;28;19929;-61
2023/03/31 04:23:57;;;;;;;;;;;20.50;45.40;;;;;;5071541;28;19924;-62
2023/03/31 04:26:29;;;;;;;;;;;20.50;45.40;;;;;;5058279;28;19920;-62
2023/03/31 04:28:59;;;;;;;;;;;20.50;45.40;;;;;;5056642;28;19959;-61
2023/03/31 04:31:29;;;;;;;;;;;20.50;45.40;;;;;;5056844;28;19959;-62
2023/03/31 04:33:59;;;;;;;;;;;20.50;45.40;;;;;;5055394;28;19940;-62
2023/03/31 04:36:27;;;;;;;;;;;20.50;45.40;;;;;;5058047;28;19964;-61
2023/03/31 04:38:54;;;;;;;;;;;20.50;45.40;;;;;;5055968;28;19927;-61
2023/03/31 04:41:21;;;;;;;;;;;20.50;45.40;;;;;;5071183;28;19931;-61
2023/03/31 04:43:48;;;;;;;;;;;20.50;45.40;;;;;;5073859;28;19939;-61
2023/03/31 04:46:15;;;;;;;;;;;20.50;45.40;;;;;;5054724;28;19956;-61
2023/03/31 04:48:43;;;;;;;;;;;20.50;45.40;;;;;;5071097;28;19928;-61
2023/03/31 04:51:10;;;;;;;;;;;20.50;45.40;;;;;;5059534;28;19971;-61
2023/03/31 04:53:36;;;;;;;;;;;20.50;45.40;;;;;;5059264;28;19924;-62
2023/03/31 04:56:03;;;;;;;;;;;20.50;45.40;;;;;;5056758;28;20320;-60
2023/03/31 04:58:30;;;;;;;;;;;20.50;45.40;;;;;;5059136;28;19927;-61
2023/03/31 05:00:57;;;;;;;;;;;20.50;45.40;;;;;;5070770;28;19920;-62
2023/03/31 05:03:24;;;;;;;;;;;20.50;45.40;;;;;;5054342;28;19920;-61
2023/03/31 05:05:52;;;;;;;;;;;20.50;45.40;;;;;;5054565;28;19970;-62
2023/03/31 05:08:20;;;;;;;;;;;20.50;45.40;;;;;;5070462;28;19966;-61
2023/03/31 05:10:46;;;;;;;;;;;20.50;45.40;;;;;;5057730;28;19924;-62
2023/03/31 05:13:13;;;;;;;;;;;20.50;45.40;;;;;;5071356;28;19920;-62
2023/03/31 05:15:40;;;;;;;;;;;20.50;45.40;;;;;;5055373;28;19931;-62
2023/03/31 05:18:06;;;;;;;;;;;20.50;45.40;;;;;;5069620;28;19928;-62
2023/03/31 05:20:33;;;;;;;;;;;20.50;45.40;;;;;;5055579;28;20347;-62
2023/03/31 05:23:02;;;;;;;;;;;20.50;45.40;;;;;;5070141;28;19970;-63
2023/03/31 05:25:31;;;;;;;;;;;20.50;45.40;;;;;;5054386;28;19932;-61
2023/03/31 05:27:58;;;;;;;;;;;20.50;45.40;;;;;;5053409;28;19920;-62
2023/03/31 05:30:25;;;;;;;;;;;20.50;45.40;;;;;;5054936;28;19921;-61
2023/03/31 05:32:52;;;;;;;;;;;20.50;45.40;;;;;;5054260;28;19924;-60
2023/03/31 05:35:19;;;;;;;;;;;20.50;45.40;;;;;;5056227;28;19921;-62
2023/03/31 05:37:46;;;;;;;;;;;20.50;45.40;;;;;;5053370;28;19978;-62
2023/03/31 05:40:14;;;;;;;;;;;20.50;45.40;;;;;;5053613;28;20009;-62
2023/03/31 05:42:40;;;;;;;;;;;20.50;45.40;;;;;;5058015;28;19920;-62
2023/03/31 05:45:08;;;;;;;;;;;20.50;45.40;;;;;;5054721;28;19925;-62
2023/03/31 05:47:34;;;;;;;;;;;20.50;45.40;;;;;;5068055;28;19969;-62
2023/03/31 05:50:02;;;;;;;;;;;20.50;45.40;;;;;;5053719;28;20350;-61
2023/03/31 05:52:31;;;;;;;;;;;20.50;45.40;;;;;;5071532;28;20058;-61
2023/03/31 05:54:58;;;;;;;;;;;20.50;45.40;;;;;;5066344;28;20413;-62
2023/03/31 05:57:26;;;;;;;;;;;20.50;45.40;;;;;;5055590;28;20027;-61
2023/03/31 05:59:53;;;;;;;;;;;20.50;45.40;;;;;;5054137;28;20282;-62
2023/03/31 06:02:20;;;;;;;;;;;20.50;45.40;;;;;;5056269;28;20370;-62
2023/03/31 06:04:47;;;;;;;;;;;20.50;45.40;;;;;;5053269;28;20405;-61
2023/03/31 06:07:16;;;;;;;;;;;20.50;45.40;;;;;;5058101;28;19932;-62
2023/03/31 06:09:43;;;;;;;;;;;20.50;45.40;;;;;;5053912;28;20386;-62
2023/03/31 06:12:10;;;;;;;;;;;20.50;45.40;;;;;;5051720;28;19920;-62
2023/03/31 06:14:38;;;;;;;;;;;20.50;45.40;;;;;;5052883;28;19921;-62
2023/03/31 06:17:05;;;;;;;;;;;20.50;45.40;;;;;;5052041;28;19932;-61
2023/03/31 06:19:31;;;;;;;;;;;20.50;45.40;;;;;;5078709;28;19997;-62
2023/03/31 06:21:58;;;;;;;;;;;20.50;45.40;;;;;;5053150;28;19920;-62
2023/03/31 06:24:25;;;;;;;;;;;20.50;45.40;;;;;;5068240;28;19928;-61
2023/03/31 06:26:52;;;;;;;;;;;20.50;45.40;;;;;;5054202;28;19920;-61
2023/03/31 06:29:19;;;;;;;;;;;20.50;45.40;;;;;;5059093;28;19943;-61
2023/03/31 06:31:47;;;;;;;;;;;20.50;45.40;;;;;;5051637;28;20351;-62
2023/03/31 06:34:14;;;;;;;;;;;20.50;45.40;;;;;;5056549;28;20267;-60
2023/03/31 06:36:40;;;;;;;;;;;20.50;45.40;;;;;;5050788;28;19921;-62
2023/03/31 06:39:08;;;;;;;;;;;20.50;45.40;;;;;;5051523;28;19921;-62
2023/03/31 06:41:34;;;;;;;;;;;20.50;45.40;;;;;;5066551;28;19924;-61
2023/03/31 06:44:01;;;;;;;;;;;20.50;45.40;;;;;;5058189;28;20433;-63
2023/03/31 06:46:28;;;;;;;;;;;20.50;45.40;;;;;;5065087;28;19927;-60
2023/03/31 06:48:56;;;;;;;;;;;20.50;45.40;;;;;;5052187;28;20300;-61
2023/03/31 06:51:23;;;;;;;;;;;20.50;45.40;;;;;;5052410;28;20340;-61
2023/03/31 06:53:50;;;;;;;;;;;20.50;45.40;;;;;;5059997;28;19943;-61
2023/03/31 06:56:16;;;;;;;;;;;20.50;45.40;;;;;;5069046;28;20007;-62
2023/03/31 06:58:43;;;;;;;;;;;20.50;45.40;;;;;;5067416;28;19928;-61
2023/03/31 07:01:11;;;;;;;;;;;20.50;45.40;;;;;;5065053;28;19947;-61
2023/03/31 07:03:37;;;;;;;;;;;20.50;45.40;;;;;;5056929;28;19920;-61
2023/03/31 07:06:06;;;;;;;;;;;20.50;45.40;;;;;;5046729;28;19933;-60
2023/03/31 07:08:33;;;;;;;;;;;20.50;45.40;;;;;;5057908;28;19920;-61
2023/03/31 07:11:00;;;;;;;;;;;20.50;45.40;;;;;;5047100;28;19974;-61
2023/03/31 07:13:26;;;;;;;;;;;20.50;45.40;;;;;;5052342;28;19924;-61
2023/03/31 07:15:53;;;;;;;;;;;20.50;45.40;;;;;;5051176;28;19940;-60
2023/03/31 07:18:20;;;;;;;;;;;20.50;45.40;;;;;;5059876;28;19924;-61
2023/03/31 07:20:50;;;;;;;;;;;20.50;45.40;;;;;;5062774;28;19977;-61
2023/03/31 07:23:18;;;;;;;;;;;20.50;45.40;;;;;;5066669;28;20321;-61
2023/03/31 07:25:46;;;;;;;;;;;20.50;45.40;;;;;;5057847;28;19995;-61
2023/03/31 07:28:13;;;;;;;;;;;20.50;45.40;;;;;;5063722;28;19967;-61
2023/03/31 07:30:39;;;;;;;;;;;20.50;45.40;;;;;;5045251;28;19920;-61
2023/03/31 07:33:06;;;;;;;;;;;20.60;45.50;;;;;;5055332;28;19971;-61
2023/03/31 07:35:33;;;;;;;;;;;20.50;45.40;;;;;;5051305;28;19924;-61
2023/03/31 07:38:00;;;;;;;;;;;20.50;45.40;;;;;;5061869;28;19924;-62
2023/03/31 07:40:28;;;;;;;;;;;20.50;45.40;;;;;;5067598;28;19921;-62
2023/03/31 07:42:55;;;;;;;;;;;20.50;45.40;;;;;;5054686;28;19924;-62
2023/03/31 07:45:23;;;;;;;;;;;20.50;45.40;;;;;;5053436;28;19924;-62
2023/03/31 07:47:50;;;;;;;;;;;20.50;45.40;;;;;;5060819;28;19925;-63
2023/03/31 07:50:17;;;;;;;;;;;20.50;45.40;;;;;;5054197;28;19925;-62
2023/03/31 07:52:44;;;;;;;;;;;20.60;45.50;;;;;;5059920;28;19924;-62
2023/03/31 07:55:11;;;;;;;;;;;20.60;45.50;;;;;;5058289;28;19997;-62
2023/03/31 07:57:40;;;;;;;;;;;20.60;45.50;;;;;;5068328;28;19943;-62
2023/03/31 08:00:10;;;;;;;;;;;20.50;45.50;;;;;;5054581;28;19927;-63
2023/03/31 08:02:37;;;;;;;;;;;20.50;45.40;;;;;;5057451;28;19920;-59
2023/03/31 08:05:04;;;;;;;;;;;20.50;45.40;;;;;;5053978;28;20432;-61
2023/03/31 08:07:33;;;;;;;;;;;20.50;45.40;;;;;;5046348;28;19960;-60
2023/03/31 08:09:59;;;;;;;;;;;20.60;45.60;;;;;;5068686;28;19977;-61
2023/03/31 08:12:26;;;;;;;;;;;20.50;45.40;;;;;;5057017;28;19920;-61
2023/03/31 08:14:54;;;;;;;;;;;20.50;45.40;;;;;;5056571;28;19921;-61
2023/03/31 08:17:21;;;;;;;;;;;20.60;45.50;;;;;;5069275;28;19940;-60
2023/03/31 08:19:49;;;;;;;;;;;20.60;45.50;;;;;;5057097;28;19931;-61
2023/03/31 08:22:15;;;;;;;;;;;20.60;45.50;;;;;;5052922;28;19924;-62
2023/03/31 08:24:42;;;;;;;;;;;20.60;45.50;;;;;;5052769;28;19944;-61
2023/03/31 08:27:09;;;;;;;;;;;20.60;45.60;;;;;;5054251;28;19920;-61
2023/03/31 08:29:36;;;;;;;;;;;20.50;45.40;;;;;;5067830;28;20023;-61
2023/03/31 08:32:04;;;;;;;;;;;20.60;45.50;;;;;;5071071;28;19924;-63
2023/03/31 08:34:31;;;;;;;;;;;20.60;45.50;;;;;;5066980;28;19921;-62
2023/03/31 08:36:57;;;;;;;;;;;20.60;45.60;;;;;;5074740;28;20332;-62
2023/03/31 08:39:24;;;;;;;;;;;20.60;45.60;;;;;;5071874;28;19925;-62
2023/03/31 08:41:53;;;;;;;;;;;20.60;46.20;;;;;;5058263;28;19925;-63
2023/03/31 08:44:21;;;;;;;;;;;20.60;45.60;;;;;;5060095;28;19946;-63
2023/03/31 08:46:48;;;;;;;;;;;20.60;45.60;;;;;;5055537;28;19921;-63
2023/03/31 08:49:17;;;;;;;;;;;20.50;45.50;;;;;;5069951;28;19920;-61
2023/03/31 08:51:45;;;;;;;;;;;20.60;45.60;;;;;;5041790;28;19936;-61
2023/03/31 08:54:13;;;;;;;;;;;20.60;45.60;;;;;;5055927;28;20371;-61
2023/03/31 08:56:40;;;;;;;;;;;20.50;45.50;;;;;;5069109;28;20420;-60
2023/03/31 08:59:07;;;;;;;;;;;20.60;45.60;;;;;;5066019;28;20015;-61
2023/03/31 09:01:36;;;;;;;;;;;20.60;45.70;;;;;;5069460;28;20129;-60
2023/03/31 09:04:07;;;;;;;;;;;20.60;45.60;;;;;;5052250;28;20001;-61
2023/03/31 09:06:37;;;;;;;;;;;20.60;45.60;;;;;;5064689;28;19924;-60
2023/03/31 09:09:03;;;;;;;;;;;20.60;45.60;;;;;;5056106;28;19927;-61
2023/03/31 09:11:32;;;;;;;;;;;20.60;45.60;;;;;;5070658;28;19924;-61
2023/03/31 09:14:17;;;;;;;;;;;20.50;45.50;;;;;;5069520;28;19924;-61
2023/03/31 09:16:45;;;;;;;;;;;20.60;45.60;;;;;;5047931;28;19932;-61
2023/03/31 09:19:14;;;;;;;;;;;20.60;45.60;;;;;;5069009;28;19924;-62
2023/03/31 09:21:42;;;;;;;;;;;20.60;45.60;;;;;;5061185;28;19931;-61
2023/03/31 09:24:11;;;;;;;;;;;20.60;45.60;;;;;;5069742;28;19925;-60
2023/03/31 09:26:39;;;;;;;;;;;20.60;45.60;;;;;;5070790;28;19932;-61
2023/03/31 09:29:07;;;;;;;;;;;20.60;45.60;;;;;;5072726;28;19924;-60
2023/03/31 09:31:34;;;;;;;;;;;20.60;45.60;;;;;;5071314;28;19956;-62
2023/03/31 09:34:01;;;;;;;;;;;20.60;45.60;;;;;;5060813;28;19920;-61
2023/03/31 09:36:28;;;;;;;;;;;20.60;45.60;;;;;;5067092;28;19924;-61
2023/03/31 09:38:56;;;;;;;;;;;20.60;45.60;;;;;;5069154;28;19932;-61
2023/03/31 09:41:23;;;;;;;;;;;20.60;45.60;;;;;;5069829;28;19928;-61
2023/03/31 09:43:50;;;;;;;;;;;20.60;45.90;;;;;;5049408;28;19955;-61
2023/03/31 09:46:18;;;;;;;;;;;20.60;45.70;;;;;;5054660;28;19927;-60
2023/03/31 09:48:49;;;;;;;;;;;20.60;45.60;;;;;;5069736;28;19978;-61
2023/03/31 09:51:17;;;;;;;;;;;20.60;45.60;;;;;;5052199;28;19970;-61
2023/03/31 09:53:46;;;;;;;;;;;20.60;45.60;;;;;;5052928;28;19928;-61
2023/03/31 09:56:14;;;;;;;;;;;20.60;45.60;;;;;;5063095;28;20019;-61
2023/03/31 09:58:41;;;;;;;;;;;20.60;45.60;;;;;;5051667;28;19924;-61
2023/03/31 10:01:09;;;;;;;;;;;20.60;45.70;;;;;;5069723;28;19924;-61
2023/03/31 10:03:41;;;;;;;;;;;20.60;45.70;;;;;;5059654;28;20258;-60
2023/03/31 10:06:08;;;;;;;;;;;20.60;45.70;;;;;;5060136;28;19920;-60
2023/03/31 10:08:38;;;;;;;;;;;20.60;45.70;;;;;;5059130;28;20099;-61
2023/03/31 10:11:10;;;;;;;;;;;20.60;45.70;;;;;;5052478;28;20273;-60
2023/03/31 10:13:40;;;;;;;;;;;20.60;45.70;;;;;;5065787;28;20393;-61
2023/03/31 10:16:08;;;;;;;;;;;20.60;45.70;;;;;;5068380;28;19929;-61
2023/03/31 10:18:35;;;;;;;;;;;20.60;45.70;;;;;;5067918;28;19974;-61
2023/03/31 10:21:02;;;;;;;;;;;20.60;45.70;;;;;;5067576;28;19924;-61
2023/03/31 10:23:29;;;;;;;;;;;20.60;45.70;;;;;;5067069;28;20366;-62
2023/03/31 10:25:56;;;;;;;;;;;20.60;45.70;;;;;;5058539;28;19925;-61
2023/03/31 10:28:23;;;;;;;;;;;20.60;45.70;;;;;;5068798;28;19931;-61
2023/03/31 10:30:51;;;;;;;;;;;20.60;45.70;;;;;;5064805;28;19924;-61
2023/03/31 10:33:19;;;;;;;;;;;20.60;45.70;;;;;;5049580;28;20003;-62
2023/03/31 10:35:47;;;;;;;;;;;20.60;45.70;;;;;;5054779;28;20107;-61
2023/03/31 10:38:15;;;;;;;;;;;20.60;45.70;;;;;;5043933;28;20394;-63
2023/03/31 10:40:41;;;;;;;;;;;20.60;45.70;;;;;;5064586;28;19928;-61
2023/03/31 10:43:10;;;;;;;;;;;20.60;45.70;;;;;;5053472;28;19924;-62
2023/03/31 10:45:37;;;;;;;;;;;20.60;45.70;;;;;;5052506;28;19992;-62
2023/03/31 10:48:05;;;;;;;;;;;20.60;45.70;;;;;;5057315;28;19921;-64
2023/03/31 10:50:33;;;;;;;;;;;20.60;45.90;;;;;;5067275;28;19932;-63
2023/03/31 10:53:03;;;;;;;;;;;20.60;45.90;;;;;;5037063;28;19924;-65
2023/03/31 10:55:33;;;;;;;;;;;20.70;45.90;;;;;;5066619;28;19924;-63
2023/03/31 10:58:01;;;;;;;;;;;20.70;46.10;;;;;;5054326;28;19947;-65
2023/03/31 11:00:28;;;;;;;;;;;20.70;46.10;;;;;;5054709;28;19924;-64
2023/03/31 11:03:13;;;;;;;;;;;20.70;46.10;;;;;;5053597;28;19931;-64
2023/03/31 11:05:42;;;;;;;;;;;20.70;46.10;;;;;;5049260;28;19927;-63
2023/03/31 11:08:17;;;;;;;;;;;20.70;46.20;;;;;;5047807;28;19920;-64
2023/03/31 11:10:57;;;;;;;;;;;20.70;46.30;;;;;;5067057;28;19970;-64
2023/03/31 11:13:25;;;;;;;;;;;20.70;46.30;;;;;;5051753;28;19939;-63
2023/03/31 11:15:54;;;;;;;;;;;20.80;46.40;;;;;;5054649;28;19933;-65
2023/03/31 11:18:42;;;;;;;;;;;20.80;46.30;;;;;;5055298;28;19920;-64
2023/03/31 11:21:12;;;;;;;;;;;20.80;46.30;;;;;;5046602;28;19924;-64
2023/03/31 11:23:41;;;;;;;;;;;20.80;46.20;;;;;;5053246;28;19936;-62
2023/03/31 11:26:09;;;;;;;;;;;20.80;46.20;;;;;;5051604;28;19998;-63
2023/03/31 11:28:38;;;;;;;;;;;20.80;46.20;;;;;;5054058;28;19987;-64
2023/03/31 11:31:09;;;;;;;;;;;20.80;46.20;;;;;;5047914;28;19932;-66
2023/03/31 11:33:54;;;;;;;;;;;20.80;46.20;;;;;;5066683;28;19931;-66
2023/03/31 11:36:27;;;;;;;;;;;20.80;46.30;;;;;;5047943;28;19930;-65
2023/03/31 11:39:03;;;;;;;;;;;20.80;46.30;;;;;;5052114;28;19925;-63
2023/03/31 11:41:32;;;;;;;;;;;20.80;46.40;;;;;;5067806;28;19920;-62
2023/03/31 11:44:02;;;;;;;;;;;20.80;46.30;;;;;;5066319;28;19921;-67
2023/03/31 11:46:32;;;;;;;;;;;20.80;46.30;;;;;;5054488;28;19920;-65
2023/03/31 11:49:00;;;;;;;;;;;20.80;46.30;;;;;;5069888;28;19987;-66
2023/03/31 11:51:29;;;;;;;;;;;20.80;46.30;;;;;;5056295;28;19927;-64
2023/03/31 11:53:56;;;;;;;;;;;20.80;46.30;;;;;;5058589;28;19925;-63
2023/03/31 11:56:23;;;;;;;;;;;20.80;46.30;;;;;;5056347;28;19932;-62
2023/03/31 11:58:51;;;;;;;;;;;20.80;46.30;;;;;;5058664;28;19920;-66
2023/03/31 12:01:20;;;;;;;;;;;20.80;46.30;;;;;;5071719;28;19974;-64
2023/03/31 12:03:49;;;;;;;;;;;20.80;46.30;;;;;;5065564;28;19932;-64
2023/03/31 12:06:18;;;;;;;;;;;20.80;46.90;;;;;;5057449;28;19968;-65
2023/03/31 12:08:50;;;;;;;;;;;20.80;46.30;;;;;;5069660;28;20287;-66
2023/03/31 12:11:18;;;;;;;;;;;20.80;46.30;;;;;;5056118;28;19990;-62
2023/03/31 12:13:45;;;;;;;;;;;20.80;46.30;;;;;;5054909;28;19928;-66
2023/03/31 12:16:12;;;;;;;;;;;20.80;46.40;;;;;;5058481;28;19946;-63
2023/03/31 12:18:40;;;;;;;;;;;20.80;46.40;;;;;;5057929;28;19920;-63
2023/03/31 12:21:07;;;;;;;;;;;20.90;46.40;;;;;;5058033;28;19921;-63
2023/03/31 12:23:34;;;;;;;;;;;20.90;46.40;;;;;;5053692;28;19924;-62
2023/03/31 12:26:02;;;;;;;;;;;20.90;46.40;;;;;;5070806;28;19947;-63
2023/03/31 12:28:31;;;;;;;;;;;20.90;46.40;;;;;;5061410;28;19969;-62
2023/03/31 12:30:58;;;;;;;;;;;20.90;46.40;;;;;;5070588;28;19980;-60
2023/03/31 12:33:26;;;;;;;;;;;20.90;46.40;;;;;;5053544;28;19932;-63
2023/03/31 12:36:03;;;;;;;;;;;20.90;46.40;;;;;;5052493;28;19927;-62
2023/03/31 12:38:40;;;;;;;;;;;20.90;46.40;;;;;;5056884;28;19920;-63
2023/03/31 12:41:11;;;;;;;;;;;20.90;46.50;;;;;;5070738;28;19927;-60
2023/03/31 12:43:49;;;;;;;;;;;20.90;46.50;;;;;;5051422;28;20278;-61
2023/03/31 12:46:20;;;;;;;;;;;20.90;46.50;;;;;;5056674;28;19925;-65
2023/03/31 12:48:52;;;;;;;;;;;20.90;46.40;;;;;;5056677;28;19920;-64
2023/03/31 12:51:31;;;;;;;;;;;20.90;46.40;;;;;;5052204;28;19931;-65
2023/03/31 12:54:01;;;;;;;;;;;20.90;46.50;;;;;;5068307;28;19924;-65
2023/03/31 12:56:29;;;;;;;;;;;20.90;46.50;;;;;;5067921;28;20255;-65
2023/03/31 12:58:56;;;;;;;;;;;20.90;46.40;;;;;;5052608;28;19924;-65
2023/03/31 13:01:23;;;;;;;;;;;20.90;46.50;;;;;;5052692;28;19974;-65
2023/03/31 13:03:54;;;;;;;;;;;20.90;46.50;;;;;;5052966;28;19974;-64
2023/03/31 13:06:40;;;;;;;;;;;20.90;46.40;;;;;;5058726;28;19931;-64
2023/03/31 13:09:08;;;;;;;;;;;20.90;46.40;;;;;;5054425;28;19924;-64
2023/03/31 13:11:38;;;;;;;;;;;20.90;46.40;;;;;;5059886;28;20270;-64
2023/03/31 13:14:06;;;;;;;;;;;20.90;46.40;;;;;;5054564;28;20345;-63
2023/03/31 13:16:33;;;;;;;;;;;20.90;46.40;;;;;;5069575;28;19967;-63
2023/03/31 13:18:59;;;;;;;;;;;20.90;46.40;;;;;;5056370;28;19921;-64
2023/03/31 13:21:26;;;;;;;;;;;20.90;46.40;;;;;;5071626;28;19924;-61
2023/03/31 13:23:53;;;;;;;;;;;20.90;46.30;;;;;;5055997;28;19939;-66
2023/03/31 13:26:38;;;;;;;;;;;20.90;46.40;;;;;;5068004;28;19936;-64
2023/03/31 13:29:18;;;;;;;;;;;20.90;46.30;;;;;;5046132;28;19932;-55
2023/03/31 13:32:04;;;;;;;;;;;20.90;46.30;;;;;;5047783;28;19920;-57
2023/03/31 13:34:31;;;;;;;;;;;20.90;46.30;;;;;;5046789;28;19928;-58
2023/03/31 13:37:06;;;;;;;;;;;20.90;46.30;;;;;;5045611;28;20414;-54
2023/03/31 13:39:57;;;;;;;;;;;20.90;46.40;;;;;;5048404;28;19927;-56
2023/03/31 13:42:27;;;;;;;;;;;20.90;46.30;;;;;;5050162;28;19997;-56
2023/03/31 13:45:00;;;;;;;;;;;20.90;46.40;;;;;;5048555;28;19921;-57
2023/03/31 13:47:48;;;;;;;;;;;20.90;46.40;;;;;;5066814;28;19978;-55
2023/03/31 13:50:16;;;;;;;;;;;20.90;46.40;;;;;;5046286;28;19925;-57
2023/03/31 13:52:44;;;;;;;;;;;20.90;46.40;;;;;;5051329;28;19989;-57
2023/03/31 13:55:38;;;;;;;;;;;20.90;46.40;;;;;;5049646;28;19924;-54
2023/03/31 13:58:25;;;;;;;;;;;20.90;46.40;;;;;;5031531;28;19998;-54
2023/03/31 14:00:57;;;;;;;;;;;20.90;46.40;;;;;;5063220;28;19962;-53
2023/03/31 14:03:27;;;;;;;;;;;20.90;46.40;;;;;;5049133;28;19956;-55
2023/03/31 14:05:55;;;;;;;;;;;20.90;46.40;;;;;;5050058;28;19921;-54
2023/03/31 14:08:25;;;;;;;;;;;20.90;46.40;;;;;;5067541;28;19921;-57
2023/03/31 14:10:52;;;;;;;;;;;20.90;46.40;;;;;;5067512;28;19921;-56
2023/03/31 14:13:19;;;;;;;;;;;20.90;46.40;;;;;;5051329;28;19924;-54
2023/03/31 14:15:47;;;;;;;;;;;20.90;46.40;;;;;;5069381;28;19990;-56
2023/03/31 14:18:15;;;;;;;;;;;20.90;46.40;;;;;;5050229;28;19929;-55
2023/03/31 14:20:45;;;;;;;;;;;20.90;46.40;;;;;;5050720;28;19943;-55
2023/03/31 14:23:14;;;;;;;;;;;20.90;46.40;;;;;;5046904;28;19920;-55
2023/03/31 14:25:44;;;;;;;;;;;20.90;46.40;;;;;;5051342;28;19997;-56
2023/03/31 14:28:15;;;;;;;;;;;20.90;46.40;;;;;;5050796;28;19926;-57